sensor_id;sensor_type;location;lat;lon;timestamp;pressure;altitude;pressure_sealevel;temperature;humidity
10392;BME280;5242;49.244;6.774;2023-03-13T00:06:26;98930.78;;;9.14;nan
10392;BME280;5242;49.244;6.774;2023-03-13T00:14:19;98920.91;;;9.25;nan
10392;BME280;5242;49.244;6.774;2023-03-13T00:22:10;98913.28;;;9.31;nan
10392;BME280;5242;49.244;6.774;2023-03-13T00:30:02;98903.63;;;9.33;nan
10392;BME280;5242;49.244;6.774;2023-03-13T00:37:54;98893.97;;;9.36;nan
10392;BME280;5242;49.244;6.774;2023-03-13T00:45:46;98888.91;;;9.38;nan
10392;BME280;5242;49.244;6.774;2023-03-13T00:53:38;98880.72;;;9.34;nan
10392;BME280;5242;49.244;6.774;2023-03-13T01:01:32;98868.44;;;9.21;nan
10392;BME280;5242;49.244;6.774;2023-03-13T01:09:24;98858.22;;;9.14;nan
10392;BME280;5242;49.244;6.774;2023-03-13T01:17:16;98850.75;;;9.08;nan
10392;BME280;5242;49.244;6.774;2023-03-13T01:25:07;98845.91;;;8.98;nan
10392;BME280;5242;49.244;6.774;2023-03-13T01:32:59;98813.59;;;8.92;nan
10392;BME280;5242;49.244;6.774;2023-03-13T01:40:52;98804.59;;;8.88;nan
10392;BME280;5242;49.244;6.774;2023-03-13T01:56:57;98775.03;;;8.83;nan
10392;BME280;5242;49.244;6.774;2023-03-13T02:04:56;98777.31;;;8.81;nan
10392;BME280;5242;49.244;6.774;2023-03-13T02:12:51;98764.59;;;8.85;nan
10392;BME280;5242;49.244;6.774;2023-03-13T02:20:44;98752.28;;;8.91;nan
10392;BME280;5242;49.244;6.774;2023-03-13T02:28:36;98741.84;;;8.93;nan
10392;BME280;5242;49.244;6.774;2023-03-13T02:36:30;98733.81;;;9.01;nan
10392;BME280;5242;49.244;6.774;2023-03-13T02:44:22;98727.41;;;9.12;nan
10392;BME280;5242;49.244;6.774;2023-03-13T02:52:20;98727.19;;;9.21;nan
10392;BME280;5242;49.244;6.774;2023-03-13T03:00:16;98716.13;;;9.33;nan
10392;BME280;5242;49.244;6.774;2023-03-13T03:08:08;98704.19;;;9.42;nan
10392;BME280;5242;49.244;6.774;2023-03-13T03:16:05;98715.59;;;9.51;nan
10392;BME280;5242;49.244;6.774;2023-03-13T03:23:57;98704.81;;;9.58;nan
10392;BME280;5242;49.244;6.774;2023-03-13T03:31:49;98707.97;;;9.60;nan
10392;BME280;5242;49.244;6.774;2023-03-13T03:39:41;98690.97;;;9.67;nan
10392;BME280;5242;49.244;6.774;2023-03-13T03:47:33;98670.03;;;9.71;nan
10392;BME280;5242;49.244;6.774;2023-03-13T03:55:24;98674.03;;;9.77;nan
10392;BME280;5242;49.244;6.774;2023-03-13T04:03:16;98676.34;;;9.78;nan
10392;BME280;5242;49.244;6.774;2023-03-13T04:11:08;98672.09;;;9.77;nan
10392;BME280;5242;49.244;6.774;2023-03-13T04:19:00;98677.94;;;9.79;nan
10392;BME280;5242;49.244;6.774;2023-03-13T04:26:51;98674.50;;;9.86;nan
10392;BME280;5242;49.244;6.774;2023-03-13T04:34:43;98682.75;;;9.93;nan
10392;BME280;5242;49.244;6.774;2023-03-13T04:42:35;98674.31;;;10.02;nan
10392;BME280;5242;49.244;6.774;2023-03-13T04:50:27;98649.44;;;10.00;nan
10392;BME280;5242;49.244;6.774;2023-03-13T04:58:18;98653.41;;;10.10;nan
10392;BME280;5242;49.244;6.774;2023-03-13T05:06:11;98670.59;;;10.17;nan
10392;BME280;5242;49.244;6.774;2023-03-13T05:14:03;98669.97;;;10.28;nan
10392;BME280;5242;49.244;6.774;2023-03-13T05:21:55;98663.88;;;10.38;nan
10392;BME280;5242;49.244;6.774;2023-03-13T05:29:46;98656.97;;;10.48;nan
10392;BME280;5242;49.244;6.774;2023-03-13T05:37:38;98665.19;;;10.51;nan
10392;BME280;5242;49.244;6.774;2023-03-13T05:45:32;98651.66;;;10.58;nan
10392;BME280;5242;49.244;6.774;2023-03-13T05:53:23;98658.22;;;10.57;nan
10392;BME280;5242;49.244;6.774;2023-03-13T06:01:15;98642.34;;;10.63;nan
10392;BME280;5242;49.244;6.774;2023-03-13T06:09:07;98642.44;;;10.74;nan
10392;BME280;5242;49.244;6.774;2023-03-13T06:17:01;98637.44;;;10.83;nan
10392;BME280;5242;49.244;6.774;2023-03-13T06:24:53;98625.09;;;10.93;nan
10392;BME280;5242;49.244;6.774;2023-03-13T06:32:45;98631.75;;;10.99;nan
10392;BME280;5242;49.244;6.774;2023-03-13T06:40:37;98651.25;;;11.04;nan
10392;BME280;5242;49.244;6.774;2023-03-13T06:48:28;98642.69;;;11.06;nan
10392;BME280;5242;49.244;6.774;2023-03-13T06:56:20;98648.13;;;11.02;nan
10392;BME280;5242;49.244;6.774;2023-03-13T07:04:12;98642.69;;;11.02;nan
10392;BME280;5242;49.244;6.774;2023-03-13T07:12:05;98628.69;;;11.07;nan
10392;BME280;5242;49.244;6.774;2023-03-13T07:19:57;98642.75;;;11.17;nan
10392;BME280;5242;49.244;6.774;2023-03-13T07:27:50;98642.06;;;11.27;nan
10392;BME280;5242;49.244;6.774;2023-03-13T07:35:47;98639.00;;;11.36;nan
10392;BME280;5242;49.244;6.774;2023-03-13T07:43:39;98618.06;;;11.54;nan
10392;BME280;5242;49.244;6.774;2023-03-13T07:51:31;98580.13;;;12.08;nan
10392;BME280;5242;49.244;6.774;2023-03-13T07:59:34;98588.59;;;13.67;nan
10392;BME280;5242;49.244;6.774;2023-03-13T08:07:26;98605.53;;;13.37;nan
10392;BME280;5242;49.244;6.774;2023-03-13T08:15:18;98605.19;;;12.89;nan
10392;BME280;5242;49.244;6.774;2023-03-13T08:23:15;98620.34;;;12.47;nan
10392;BME280;5242;49.244;6.774;2023-03-13T08:39:19;98616.00;;;12.10;nan
10392;BME280;5242;49.244;6.774;2023-03-13T08:47:11;98601.19;;;12.11;nan
10392;BME280;5242;49.244;6.774;2023-03-13T08:55:02;98586.78;;;12.21;nan
10392;BME280;5242;49.244;6.774;2023-03-13T09:02:56;98573.97;;;12.68;nan
10392;BME280;5242;49.244;6.774;2023-03-13T09:11:01;98557.13;;;12.95;nan
10392;BME280;5242;49.244;6.774;2023-03-13T09:18:54;98530.13;;;13.29;nan
10392;BME280;5242;49.244;6.774;2023-03-13T09:26:47;98525.72;;;14.27;nan
10392;BME280;5242;49.244;6.774;2023-03-13T09:34:51;98498.69;;;17.81;nan
10392;BME280;5242;49.244;6.774;2023-03-13T09:42:55;98495.19;;;19.38;nan
10392;BME280;5242;49.244;6.774;2023-03-13T09:51:20;98477.91;;;21.53;nan
10392;BME280;5242;49.244;6.774;2023-03-13T09:59:19;98460.28;;;23.84;nan
10392;BME280;5242;49.244;6.774;2023-03-13T10:07:13;98441.97;;;25.57;nan
10392;BME280;5242;49.244;6.774;2023-03-13T10:15:18;98431.25;;;26.56;nan
10392;BME280;5242;49.244;6.774;2023-03-13T10:23:18;98424.06;;;27.48;nan
10392;BME280;5242;49.244;6.774;2023-03-13T10:31:27;98400.94;;;28.28;nan
10392;BME280;5242;49.244;6.774;2023-03-13T10:39:24;98380.94;;;28.47;nan
10392;BME280;5242;49.244;6.774;2023-03-13T10:47:18;98363.00;;;28.27;nan
10392;BME280;5242;49.244;6.774;2023-03-13T10:55:12;98352.22;;;27.98;nan
10392;BME280;5242;49.244;6.774;2023-03-13T11:03:16;98339.47;;;27.96;nan
10392;BME280;5242;49.244;6.774;2023-03-13T11:11:19;98298.91;;;28.29;nan
10392;BME280;5242;49.244;6.774;2023-03-13T11:44:11;98264.13;;;23.59;nan
10392;BME280;5242;49.244;6.774;2023-03-13T12:00:35;98252.22;;;20.86;nan
10392;BME280;5242;49.244;6.774;2023-03-13T12:08:38;98236.97;;;20.06;nan
10392;BME280;5242;49.244;6.774;2023-03-13T12:16:40;98215.81;;;20.34;nan
10392;BME280;5242;49.244;6.774;2023-03-13T12:24:39;98194.09;;;20.24;nan
10392;BME280;5242;49.244;6.774;2023-03-13T12:32:38;98172.06;;;19.89;nan
10392;BME280;5242;49.244;6.774;2023-03-13T12:56:59;98109.63;;;19.69;nan
10392;BME280;5242;49.244;6.774;2023-03-13T13:04:57;98091.50;;;19.68;nan
10392;BME280;5242;49.244;6.774;2023-03-13T13:28:57;98018.94;;;23.35;nan
10392;BME280;5242;49.244;6.774;2023-03-13T13:36:50;97979.78;;;24.27;nan
10392;BME280;5242;49.244;6.774;2023-03-13T13:44:58;97945.19;;;24.69;nan
10392;BME280;5242;49.244;6.774;2023-03-13T13:52:51;97944.28;;;22.98;nan
10392;BME280;5242;49.244;6.774;2023-03-13T14:00:47;97910.59;;;22.27;nan
10392;BME280;5242;49.244;6.774;2023-03-13T14:08:44;97875.78;;;23.84;nan
10392;BME280;5242;49.244;6.774;2023-03-13T14:16:38;97849.22;;;22.34;nan
10392;BME280;5242;49.244;6.774;2023-03-13T14:24:34;97847.53;;;22.52;nan
10392;BME280;5242;49.244;6.774;2023-03-13T14:32:26;97856.69;;;23.41;nan
10392;BME280;5242;49.244;6.774;2023-03-13T14:40:26;98019.84;;;21.32;nan
10392;BME280;5242;49.244;6.774;2023-03-13T15:04:48;97927.31;;;12.34;nan
10392;BME280;5242;49.244;6.774;2023-03-13T15:12:43;97909.53;;;12.19;nan
10392;BME280;5242;49.244;6.774;2023-03-13T15:20:34;97888.13;;;12.14;nan
10392;BME280;5242;49.244;6.774;2023-03-13T15:28:27;97900.19;;;12.20;nan
10392;BME280;5242;49.244;6.774;2023-03-13T15:36:19;97873.09;;;12.36;nan
10392;BME280;5242;49.244;6.774;2023-03-13T15:44:11;97869.34;;;12.61;nan
10392;BME280;5242;49.244;6.774;2023-03-13T15:52:09;97849.44;;;12.95;nan
10392;BME280;5242;49.244;6.774;2023-03-13T16:00:06;97846.78;;;13.18;nan
10392;BME280;5242;49.244;6.774;2023-03-13T16:08:01;97860.22;;;13.36;nan
10392;BME280;5242;49.244;6.774;2023-03-13T16:15:53;97864.91;;;13.36;nan
10392;BME280;5242;49.244;6.774;2023-03-13T16:23:45;97833.31;;;13.35;nan
10392;BME280;5242;49.244;6.774;2023-03-13T16:31:37;97806.16;;;13.20;nan
10392;BME280;5242;49.244;6.774;2023-03-13T16:39:29;97798.25;;;12.99;nan
10392;BME280;5242;49.244;6.774;2023-03-13T16:47:27;97764.38;;;12.93;nan
10392;BME280;5242;49.244;6.774;2023-03-13T16:55:20;97798.81;;;12.87;nan
10392;BME280;5242;49.244;6.774;2023-03-13T17:03:12;97822.28;;;12.80;nan
10392;BME280;5242;49.244;6.774;2023-03-13T17:11:04;97794.25;;;12.76;nan
10392;BME280;5242;49.244;6.774;2023-03-13T17:18:56;97769.63;;;12.80;nan
10392;BME280;5242;49.244;6.774;2023-03-13T17:26:48;97802.81;;;12.78;nan
10392;BME280;5242;49.244;6.774;2023-03-13T17:34:40;97802.09;;;12.74;nan
10392;BME280;5242;49.244;6.774;2023-03-13T17:42:32;97784.69;;;12.61;nan
10392;BME280;5242;49.244;6.774;2023-03-13T17:50:26;97828.78;;;12.25;nan
10392;BME280;5242;49.244;6.774;2023-03-13T17:58:18;97869.34;;;11.74;nan
10392;BME280;5242;49.244;6.774;2023-03-13T18:06:18;97861.91;;;11.23;nan
10392;BME280;5242;49.244;6.774;2023-03-13T18:14:11;97837.13;;;10.99;nan
10392;BME280;5242;49.244;6.774;2023-03-13T18:22:05;97867.09;;;10.88;nan
10392;BME280;5242;49.244;6.774;2023-03-13T18:29:57;97859.75;;;10.82;nan
10392;BME280;5242;49.244;6.774;2023-03-13T18:37:49;97874.56;;;10.70;nan
10392;BME280;5242;49.244;6.774;2023-03-13T18:45:40;97798.41;;;10.59;nan
10392;BME280;5242;49.244;6.774;2023-03-13T18:53:32;97738.56;;;10.45;nan
10392;BME280;5242;49.244;6.774;2023-03-13T19:01:27;97723.88;;;10.32;nan
10392;BME280;5242;49.244;6.774;2023-03-13T19:09:20;97758.06;;;10.26;nan
10392;BME280;5242;49.244;6.774;2023-03-13T19:17:32;97745.63;;;10.24;nan
10392;BME280;5242;49.244;6.774;2023-03-13T19:25:24;97725.44;;;10.15;nan
10392;BME280;5242;49.244;6.774;2023-03-13T19:33:15;97772.09;;;10.13;nan
10392;BME280;5242;49.244;6.774;2023-03-13T19:41:08;97744.91;;;10.06;nan
10392;BME280;5242;49.244;6.774;2023-03-13T19:49:01;97738.72;;;9.98;nan
10392;BME280;5242;49.244;6.774;2023-03-13T19:56:53;97767.84;;;9.94;nan
10392;BME280;5242;49.244;6.774;2023-03-13T20:04:45;97736.41;;;9.90;nan
10392;BME280;5242;49.244;6.774;2023-03-13T20:12:37;97702.63;;;9.84;nan
10392;BME280;5242;49.244;6.774;2023-03-13T20:20:29;97710.03;;;9.79;nan
10392;BME280;5242;49.244;6.774;2023-03-13T20:28:21;97714.31;;;9.66;nan
10392;BME280;5242;49.244;6.774;2023-03-13T20:36:15;97682.13;;;9.50;nan
10392;BME280;5242;49.244;6.774;2023-03-13T20:44:07;97675.19;;;9.39;nan
10392;BME280;5242;49.244;6.774;2023-03-13T20:52:00;97713.97;;;9.35;nan
10392;BME280;5242;49.244;6.774;2023-03-13T20:59:52;97711.63;;;9.30;nan
10392;BME280;5242;49.244;6.774;2023-03-13T21:07:44;97724.84;;;9.25;nan
10392;BME280;5242;49.244;6.774;2023-03-13T21:15:36;97729.09;;;9.15;nan
10392;BME280;5242;49.244;6.774;2023-03-13T21:23:28;97745.00;;;9.06;nan
10392;BME280;5242;49.244;6.774;2023-03-13T21:31:20;97737.63;;;8.96;nan
10392;BME280;5242;49.244;6.774;2023-03-13T21:39:12;97729.47;;;8.88;nan
10392;BME280;5242;49.244;6.774;2023-03-13T21:47:05;97720.16;;;8.89;nan
10392;BME280;5242;49.244;6.774;2023-03-13T21:54:57;97769.03;;;8.86;nan
10392;BME280;5242;49.244;6.774;2023-03-13T22:02:49;97762.81;;;8.85;nan
10392;BME280;5242;49.244;6.774;2023-03-13T22:10:46;97741.91;;;8.93;nan
10392;BME280;5242;49.244;6.774;2023-03-13T22:18:38;97722.50;;;8.87;nan
10392;BME280;5242;49.244;6.774;2023-03-13T22:26:31;97720.16;;;8.82;nan
10392;BME280;5242;49.244;6.774;2023-03-13T22:34:22;97746.91;;;8.80;nan
10392;BME280;5242;49.244;6.774;2023-03-13T22:42:14;97723.25;;;8.91;nan
10392;BME280;5242;49.244;6.774;2023-03-13T22:50:06;97696.13;;;9.06;nan
10392;BME280;5242;49.244;6.774;2023-03-13T22:58:01;97712.03;;;9.11;nan
10392;BME280;5242;49.244;6.774;2023-03-13T23:05:52;97740.34;;;9.10;nan
10392;BME280;5242;49.244;6.774;2023-03-13T23:13:44;97767.13;;;9.15;nan
10392;BME280;5242;49.244;6.774;2023-03-13T23:21:36;97759.75;;;9.19;nan
10392;BME280;5242;49.244;6.774;2023-03-13T23:29:27;97758.19;;;9.25;nan
10392;BME280;5242;49.244;6.774;2023-03-13T23:37:19;97757.84;;;9.34;nan
10392;BME280;5242;49.244;6.774;2023-03-13T23:45:11;97766.75;;;9.34;nan
10392;BME280;5242;49.244;6.774;2023-03-13T23:53:03;97751.22;;;9.35;nan
